createdAt,value
2018-04-17T00:01:00.594Z,5.03
2018-04-17T00:03:26.587Z,4.68
2018-04-17T00:05:52.566Z,3.22
2018-04-17T00:08:18.551Z,4.53
2018-04-17T00:10:44.531Z,3.10
2018-04-17T00:13:10.503Z,3.77
2018-04-17T00:15:36.450Z,3.03
2018-04-17T00:18:02.966Z,4.33
2018-04-17T00:20:28.924Z,5.22
2018-04-17T00:22:54.866Z,4.23
2018-04-17T00:25:20.838Z,3.30
2018-04-17T00:27:46.786Z,3.20
2018-04-17T00:30:12.784Z,6.03
2018-04-17T00:32:38.743Z,6.90
2018-04-17T00:35:04.734Z,4.70
2018-04-17T00:37:30.706Z,6.53
2018-04-17T00:39:56.683Z,5.53
2018-04-17T00:42:22.670Z,4.62
2018-04-17T00:44:48.647Z,3.17
2018-04-17T00:47:14.599Z,3.33
2018-04-17T00:49:40.561Z,3.63
2018-04-17T00:52:06.519Z,5.10
2018-04-17T00:54:32.524Z,6.50
2018-04-17T00:56:58.499Z,4.20
2018-04-17T00:59:25.261Z,4.03
2018-04-17T01:01:51.198Z,4.00
2018-04-17T01:04:17.132Z,3.40
2018-04-17T01:06:43.115Z,4.53
2018-04-17T01:09:09.088Z,4.28
2018-04-17T01:11:35.074Z,7.03
2018-04-17T01:14:01.018Z,3.90
2018-04-17T01:16:27.006Z,3.77
2018-04-17T01:18:52.947Z,4.10
2018-04-17T01:21:18.917Z,3.80
2018-04-17T01:23:44.864Z,6.30
2018-04-17T01:26:11.589Z,3.80
2018-04-17T01:28:37.530Z,6.90
2018-04-17T01:31:04.238Z,4.40
2018-04-17T01:33:30.208Z,3.65
2018-04-17T01:35:56.211Z,4.43
2018-04-17T01:38:22.894Z,4.10
2018-04-17T01:40:48.826Z,4.10
2018-04-17T01:43:14.825Z,4.43
2018-04-17T01:45:40.846Z,4.25
2018-04-17T01:48:06.832Z,3.45
2018-04-17T01:50:33.522Z,3.22
2018-04-17T01:52:59.535Z,4.90
2018-04-17T01:55:25.507Z,3.90
2018-04-17T01:57:52.244Z,4.28
2018-04-17T02:00:18.193Z,4.35
2018-04-17T02:02:44.195Z,4.30
2018-04-17T02:05:10.219Z,3.85
2018-04-17T02:07:36.195Z,7.05
2018-04-17T02:10:02.184Z,4.37
2018-04-17T02:12:28.869Z,5.35
2018-04-17T02:14:54.843Z,7.93
2018-04-17T02:17:20.803Z,3.80
2018-04-17T02:19:46.792Z,4.93
2018-04-17T02:22:12.774Z,6.37
2018-04-17T02:24:38.732Z,4.62
2018-04-17T02:27:04.715Z,4.47
2018-04-17T02:29:30.688Z,4.25
2018-04-17T02:31:56.642Z,4.05
2018-04-17T02:34:22.647Z,4.00
2018-04-17T02:36:48.596Z,4.12
2018-04-17T02:39:14.595Z,5.03
2018-04-17T02:41:40.540Z,4.50
2018-04-17T02:44:06.561Z,6.60
2018-04-17T02:46:32.530Z,4.43
2018-04-17T02:48:59.235Z,4.23
2018-04-17T02:51:25.229Z,6.82
2018-04-17T02:53:51.208Z,5.55
2018-04-17T02:56:17.330Z,4.23
2018-04-17T02:58:43.345Z,6.40
2018-04-17T03:01:09.402Z,4.70
2018-04-17T03:03:35.404Z,5.37
2018-04-17T03:06:02.138Z,4.68
2018-04-17T03:08:28.823Z,4.25
2018-04-17T03:10:54.820Z,7.45
2018-04-17T03:13:20.771Z,4.37
2018-04-17T03:15:46.725Z,4.40
2018-04-17T03:18:12.694Z,6.43
2018-04-17T03:20:38.684Z,5.00
2018-04-17T03:23:04.631Z,3.80
2018-04-17T03:25:30.588Z,5.67
2018-04-17T03:27:56.547Z,4.40
2018-04-17T03:30:22.515Z,5.80
2018-04-17T03:32:48.493Z,5.10
2018-04-17T03:35:15.203Z,5.40
2018-04-17T03:37:41.188Z,4.18
2018-04-17T03:40:07.137Z,4.55
2018-04-17T03:42:33.118Z,4.60
2018-04-17T03:44:59.092Z,3.60
2018-04-17T03:47:25.074Z,4.83
2018-04-17T03:49:51.035Z,5.43
2018-04-17T03:52:17.028Z,7.40
2018-04-17T03:54:42.991Z,11.43
2018-04-17T03:57:08.939Z,3.93
2018-04-17T03:59:35.661Z,4.40
2018-04-17T04:02:01.626Z,4.47
2018-04-17T04:04:27.602Z,5.62
2018-04-17T04:06:53.587Z,5.10
2018-04-17T04:09:19.594Z,5.70
2018-04-17T04:11:45.543Z,4.80
2018-04-17T04:14:11.502Z,5.57
2018-04-17T04:16:37.496Z,5.83
2018-04-17T04:19:03.446Z,6.05
2018-04-17T04:21:30.186Z,4.87
2018-04-17T04:23:56.135Z,5.00
2018-04-17T04:26:22.170Z,4.70
2018-04-17T04:28:48.150Z,7.47
2018-04-17T04:31:14.131Z,4.43
2018-04-17T04:33:40.110Z,5.65
2018-04-17T04:36:06.062Z,5.22
2018-04-17T04:38:32.050Z,7.73
2018-04-17T04:40:58.006Z,4.28
2018-04-17T04:43:24.031Z,5.03
2018-04-17T04:45:50.034Z,4.62
2018-04-17T04:48:16.020Z,7.18
2018-04-17T04:50:41.984Z,4.43
2018-04-17T04:53:08.001Z,12.27
2018-04-17T04:55:34.698Z,4.80
2018-04-17T04:58:00.849Z,6.75
2018-04-17T05:00:26.801Z,5.40
2018-04-17T05:02:52.774Z,6.30
2018-04-17T05:05:18.759Z,5.32
2018-04-17T05:07:45.571Z,5.25
2018-04-17T05:10:12.845Z,5.22
2018-04-17T05:12:38.794Z,6.35
2018-04-17T05:15:05.743Z,5.90
2018-04-17T05:17:32.327Z,9.43
2018-04-17T05:20:01.121Z,8.25
2018-04-17T05:22:27.058Z,7.72
2018-04-17T05:24:53.044Z,7.33
2018-04-17T05:27:19.743Z,6.75
2018-04-17T05:29:45.755Z,8.43
2018-04-17T05:32:11.724Z,11.50
2018-04-17T05:34:37.670Z,8.77
2018-04-17T05:37:03.672Z,9.50
2018-04-17T05:39:29.622Z,7.57
2018-04-17T05:41:55.618Z,8.63
2018-04-17T05:44:21.571Z,9.48
2018-04-17T05:46:47.590Z,8.73
2018-04-17T05:49:13.534Z,11.43
2018-04-17T05:51:39.496Z,8.20
2018-04-17T05:54:05.441Z,7.73
2018-04-17T05:56:32.147Z,10.17
2018-04-17T05:58:58.106Z,9.55
2018-04-17T06:01:24.842Z,12.43
2018-04-17T06:03:51.598Z,13.80
2018-04-17T06:06:17.594Z,10.50
2018-04-17T06:08:43.557Z,10.80
2018-04-17T06:11:09.554Z,19.23
2018-04-17T06:13:36.271Z,9.95
2018-04-17T06:16:02.225Z,10.35
2018-04-17T06:18:28.206Z,8.77
2018-04-17T06:20:54.211Z,7.32
2018-04-17T06:23:20.197Z,4.68
2018-04-17T06:25:46.139Z,6.03
2018-04-17T06:28:12.114Z,5.53
2018-04-17T06:30:38.879Z,7.95
2018-04-17T06:33:04.819Z,6.45
2018-04-17T06:35:30.790Z,5.03
2018-04-17T06:37:56.799Z,7.30
2018-04-17T06:40:22.770Z,6.37
2018-04-17T06:42:48.725Z,8.00
2018-04-17T06:45:14.700Z,6.73
2018-04-17T06:47:40.685Z,7.78
2018-04-17T06:50:06.642Z,9.53
2018-04-17T06:52:33.354Z,5.60
2018-04-17T06:54:59.337Z,7.60
2018-04-17T06:57:25.275Z,5.78
2018-04-17T06:59:51.215Z,8.30
2018-04-17T07:02:17.202Z,5.80
2018-04-17T07:04:43.203Z,8.52
2018-04-17T07:07:09.161Z,6.40
2018-04-17T07:09:35.164Z,7.90
2018-04-17T07:12:01.134Z,9.48
2018-04-17T07:14:27.092Z,8.53
2018-04-17T07:16:53.833Z,9.50
2018-04-17T07:19:20.508Z,6.72
2018-04-17T07:21:46.487Z,8.63
2018-04-17T07:24:12.466Z,11.50
2018-04-17T07:26:38.477Z,9.27
2018-04-17T07:29:04.433Z,7.75
2018-04-17T07:31:30.394Z,8.10
2018-04-17T07:33:56.359Z,10.17
2018-04-17T07:36:22.335Z,8.60
2018-04-17T07:38:48.314Z,10.20
2018-04-17T07:41:14.258Z,9.07
2018-04-17T07:43:40.975Z,9.00
2018-04-17T07:46:06.911Z,11.12
2018-04-17T07:48:32.881Z,12.00
2018-04-17T07:50:58.845Z,10.10
2018-04-17T07:53:24.820Z,12.97
2018-04-17T07:55:50.795Z,10.77
2018-04-17T07:58:16.762Z,11.73
2018-04-17T08:00:42.749Z,8.40
2018-04-17T08:03:09.455Z,8.73
2018-04-17T08:05:35.418Z,10.18
2018-04-17T08:08:02.111Z,8.23
2018-04-17T08:10:28.123Z,9.45
2018-04-17T08:12:54.063Z,10.45
2018-04-17T08:15:20.044Z,9.50
2018-04-17T08:17:46.014Z,9.63
2018-04-17T08:20:12.024Z,12.25
2018-04-17T08:22:37.986Z,9.83
2018-04-17T08:25:04.691Z,10.57
2018-04-17T08:27:30.662Z,9.60
2018-04-17T08:29:56.651Z,9.97
2018-04-17T08:32:22.608Z,10.38
2018-04-17T08:34:48.608Z,11.50
2018-04-17T08:37:14.692Z,11.77
2018-04-17T08:39:40.647Z,9.50
2018-04-17T08:42:06.634Z,15.80
2018-04-17T08:44:32.594Z,9.40
2018-04-17T08:46:58.578Z,10.43
2018-04-17T08:49:24.535Z,11.43
2018-04-17T08:51:50.512Z,10.63
2018-04-17T08:54:16.462Z,10.57
2018-04-17T08:56:42.438Z,8.20
2018-04-17T08:59:08.394Z,9.20
2018-04-17T09:01:34.406Z,10.07
2018-04-17T09:04:00.350Z,9.13
2018-04-17T09:06:26.301Z,10.53
2018-04-17T09:08:53.003Z,12.10
2018-04-17T09:11:18.980Z,9.38
2018-04-17T09:13:44.975Z,11.80
2018-04-17T09:16:10.925Z,8.20
2018-04-17T09:18:36.891Z,11.30
2018-04-17T09:21:02.894Z,9.93
2018-04-17T09:23:28.873Z,9.00
2018-04-17T09:25:54.879Z,9.23
2018-04-17T09:28:21.651Z,9.82
2018-04-17T09:30:47.606Z,8.52
2018-04-17T09:33:13.568Z,8.80
2018-04-17T09:35:39.562Z,11.10
2018-04-17T09:38:05.510Z,10.10
2018-04-17T09:40:31.496Z,9.63
2018-04-17T09:42:58.202Z,10.77
2018-04-17T09:45:24.206Z,9.07
2018-04-17T09:47:50.966Z,10.00
2018-04-17T09:50:16.929Z,10.13
2018-04-17T09:52:42.911Z,9.20
2018-04-17T09:55:08.889Z,10.47
2018-04-17T09:57:34.868Z,8.73
2018-04-17T10:00:00.825Z,8.03
2018-04-17T10:02:26.798Z,9.00
2018-04-17T10:04:52.797Z,6.30
2018-04-17T10:07:18.775Z,8.40
2018-04-17T10:09:44.768Z,7.97
2018-04-17T10:12:10.749Z,8.40
2018-04-17T10:14:36.699Z,6.10
2018-04-17T10:17:02.727Z,5.30
2018-04-17T10:19:28.690Z,6.25
2018-04-17T10:21:54.660Z,6.83
2018-04-17T10:24:21.355Z,6.10
2018-04-17T10:26:47.346Z,7.72
2018-04-17T10:29:13.313Z,5.63
2018-04-17T10:31:39.314Z,5.90
2018-04-17T10:34:05.262Z,3.83
2018-04-17T10:36:31.220Z,3.63
2018-04-17T10:38:57.954Z,4.77
2018-04-17T10:41:24.671Z,7.55
2018-04-17T10:43:50.655Z,4.55
2018-04-17T10:46:16.607Z,5.20
2018-04-17T10:48:42.594Z,7.30
2018-04-17T10:51:08.568Z,5.40
2018-04-17T10:53:34.534Z,4.83
2018-04-17T10:56:00.495Z,4.87
2018-04-17T10:58:26.480Z,6.00
2018-04-17T11:00:52.462Z,6.00
2018-04-17T11:03:18.492Z,7.37
2018-04-17T11:05:44.467Z,5.32
2018-04-17T11:08:10.411Z,5.57
2018-04-17T11:10:36.415Z,5.60
2018-04-17T11:13:02.370Z,5.27
2018-04-17T11:15:28.362Z,5.00
2018-04-17T11:17:54.314Z,4.90
2018-04-17T11:20:20.667Z,5.17
2018-04-17T11:22:46.763Z,5.17
2018-04-17T11:25:12.740Z,5.10
2018-04-17T11:27:38.722Z,5.47
2018-04-17T11:30:04.717Z,4.00
2018-04-17T11:32:30.695Z,4.70
2018-04-17T11:34:56.668Z,4.80
2018-04-17T11:37:22.706Z,5.17
2018-04-17T11:39:48.714Z,4.80
2018-04-17T11:42:14.716Z,5.50
2018-04-17T11:44:40.703Z,4.47
2018-04-17T11:47:07.430Z,4.27
2018-04-17T11:49:34.128Z,3.93
2018-04-17T11:52:00.117Z,4.20
2018-04-17T11:54:26.087Z,4.40
2018-04-17T11:56:52.080Z,3.30
2018-04-17T11:59:18.033Z,4.87
2018-04-17T12:01:44.021Z,3.70
2018-04-17T12:04:09.995Z,3.10
2018-04-17T12:06:36.919Z,3.33
2018-04-17T12:09:02.919Z,2.83
2018-04-17T12:11:28.890Z,6.10
2018-04-17T12:13:54.903Z,3.03
2018-04-17T12:16:20.855Z,3.40
2018-04-17T12:18:46.837Z,7.37
2018-04-17T12:21:13.018Z,3.50
2018-04-17T12:23:38.995Z,4.50
2018-04-17T12:26:05.021Z,2.83
2018-04-17T12:28:31.022Z,3.23
2018-04-17T12:30:56.980Z,2.30
2018-04-17T12:33:23.667Z,3.00
2018-04-17T12:35:49.672Z,4.43
2018-04-17T12:38:15.633Z,5.20
2018-04-17T12:40:41.631Z,2.80
2018-04-17T12:43:07.580Z,3.57
2018-04-17T12:45:33.584Z,4.27
2018-04-17T12:47:59.558Z,3.10
2018-04-17T12:50:26.259Z,2.53
2018-04-17T12:52:52.214Z,2.10
2018-04-17T12:55:18.934Z,3.47
2018-04-17T12:57:44.888Z,3.27
2018-04-17T13:00:11.591Z,3.20
2018-04-17T13:02:37.538Z,4.20
2018-04-17T13:05:04.318Z,2.43
2018-04-17T13:07:30.297Z,2.70
2018-04-17T13:09:57.057Z,5.90
2018-04-17T13:12:23.061Z,3.30
2018-04-17T13:14:49.765Z,3.10
2018-04-17T13:17:15.795Z,2.33
2018-04-17T13:19:41.766Z,1.90
2018-04-17T13:22:07.718Z,2.70
2018-04-17T13:24:33.677Z,3.90
2018-04-17T13:26:59.646Z,4.27
2018-04-17T13:29:25.611Z,5.23
2018-04-17T13:31:51.608Z,1.80
2018-04-17T13:34:17.584Z,2.20
2018-04-17T13:36:44.323Z,2.63
2018-04-17T13:39:11.058Z,3.10
2018-04-17T13:41:37.763Z,2.63
2018-04-17T13:44:03.771Z,1.70
2018-04-17T13:46:29.731Z,3.03
2018-04-17T13:48:55.731Z,2.47
2018-04-17T13:51:21.686Z,3.03
2018-04-17T13:53:48.419Z,2.33
2018-04-17T13:56:14.358Z,3.10
2018-04-17T13:58:41.052Z,2.10
2018-04-17T14:01:07.044Z,5.23
2018-04-17T14:03:33.024Z,3.37
2018-04-17T14:05:59.753Z,3.20
2018-04-17T14:08:25.703Z,3.13
2018-04-17T14:10:52.439Z,3.63
2018-04-17T14:13:19.171Z,3.87
2018-04-17T14:15:45.123Z,3.00
2018-04-17T14:18:11.138Z,4.13
2018-04-17T14:20:37.120Z,3.63
2018-04-17T14:23:03.067Z,3.90
2018-04-17T14:25:29.831Z,2.47
2018-04-17T14:27:56.507Z,2.37
2018-04-17T14:30:22.504Z,3.07
2018-04-17T14:32:49.211Z,2.30
2018-04-17T14:35:15.923Z,4.40
2018-04-17T14:37:41.906Z,5.70
2018-04-17T14:40:07.900Z,2.53
2018-04-17T14:42:35.419Z,2.30
2018-04-17T14:45:01.578Z,2.60
2018-04-17T14:47:28.534Z,3.43
2018-04-17T14:49:55.229Z,2.60
2018-04-17T14:52:21.200Z,3.70
2018-04-17T14:54:47.933Z,3.00
2018-04-17T14:57:13.914Z,3.10
2018-04-17T14:59:39.878Z,2.57
2018-04-17T15:02:06.634Z,2.50
2018-04-17T15:04:32.626Z,3.57
2018-04-17T15:06:58.610Z,3.33
2018-04-17T15:09:24.599Z,5.43
2018-04-17T15:11:50.574Z,4.37
2018-04-17T15:14:16.540Z,3.13
2018-04-17T15:16:42.554Z,3.50
2018-04-17T15:19:09.266Z,2.50
2018-04-17T15:21:35.230Z,2.83
2018-04-17T15:24:01.269Z,4.03
2018-04-17T15:26:27.227Z,3.00
2018-04-17T15:28:53.208Z,3.20
2018-04-17T15:31:19.208Z,2.97
2018-04-17T15:33:45.186Z,5.53
2018-04-17T15:36:11.162Z,2.77
2018-04-17T15:38:37.178Z,2.70
2018-04-17T15:41:03.125Z,2.83
2018-04-17T15:43:29.088Z,2.63
2018-04-17T15:45:55.073Z,2.50
2018-04-17T15:48:21.027Z,2.63
2018-04-17T15:50:47.055Z,3.40
2018-04-17T15:53:13.026Z,4.27
2018-04-17T15:55:39.011Z,3.30
2018-04-17T15:58:05.021Z,2.80
2018-04-17T16:00:31.024Z,3.90
2018-04-17T16:02:57.022Z,2.60
2018-04-17T16:05:22.996Z,2.33
2018-04-17T16:07:49.003Z,2.70
2018-04-17T16:10:15.004Z,2.57
2018-04-17T16:12:40.970Z,2.80
2018-04-17T16:15:06.954Z,3.83
2018-04-17T16:17:32.921Z,5.00
2018-04-17T16:19:59.654Z,3.50
2018-04-17T16:22:25.624Z,3.53
2018-04-17T16:24:51.578Z,2.33
2018-04-17T16:27:17.544Z,7.23
2018-04-17T16:29:43.986Z,3.80
2018-04-17T16:32:09.999Z,4.00
2018-04-17T16:34:36.723Z,2.50
2018-04-17T16:37:03.417Z,6.37
2018-04-17T16:39:29.376Z,2.40
2018-04-17T16:41:55.359Z,2.87
2018-04-17T16:44:21.314Z,2.23
2018-04-17T16:46:47.311Z,2.77
2018-04-17T16:49:13.326Z,3.77
2018-04-17T16:51:39.309Z,3.50
2018-04-17T16:54:06.008Z,3.10
2018-04-17T16:56:31.973Z,3.47
2018-04-17T16:58:57.951Z,2.70
2018-04-17T17:01:23.929Z,5.43
2018-04-17T17:03:49.898Z,3.00
2018-04-17T17:06:15.865Z,5.93
2018-04-17T17:08:41.807Z,3.13
2018-04-17T17:11:20.847Z,4.87
2018-04-17T17:13:47.261Z,3.20
2018-04-17T17:30:15.609Z,9.63
2018-04-17T17:36:14.274Z,4.13
2018-04-17T17:38:40.393Z,3.50
2018-04-17T17:41:08.277Z,4.20
2018-04-17T17:43:34.440Z,3.77
2018-04-17T17:46:00.424Z,3.53
2018-04-17T17:48:26.398Z,3.20
2018-04-17T17:50:52.367Z,6.33
2018-04-17T17:53:18.322Z,4.17
2018-04-17T17:55:45.047Z,4.13
2018-04-17T17:58:11.019Z,7.70
2018-04-17T18:00:37.070Z,5.00
2018-04-17T18:03:03.036Z,4.63
2018-04-17T18:05:29.067Z,4.23
2018-04-17T18:07:55.066Z,6.33
2018-04-17T18:10:21.079Z,5.80
2018-04-17T18:12:47.069Z,6.22
2018-04-17T18:15:13.064Z,5.27
2018-04-17T18:17:39.037Z,5.03
2018-04-17T18:20:05.084Z,5.00
2018-04-17T18:22:31.114Z,5.00
2018-04-17T18:24:57.855Z,3.70
2018-04-17T18:27:23.876Z,5.37
2018-04-17T18:29:50.589Z,4.85
2018-04-17T18:32:16.555Z,6.32
2018-04-17T18:34:43.257Z,4.80
2018-04-17T18:37:09.986Z,5.35
2018-04-17T18:39:35.993Z,5.65
2018-04-17T18:42:01.972Z,5.82
2018-04-17T18:44:28.711Z,3.53
2018-04-17T18:46:54.715Z,3.92
2018-04-17T18:49:21.463Z,5.45
2018-04-17T18:51:48.174Z,4.95
2018-04-17T18:54:14.183Z,5.72
2018-04-17T18:56:40.145Z,6.28
2018-04-17T18:59:06.112Z,6.93
2018-04-17T19:01:32.097Z,3.83
2018-04-17T19:03:58.827Z,3.70
2018-04-17T19:06:24.784Z,4.30
2018-04-17T19:08:50.780Z,3.90
2018-04-17T19:11:17.505Z,4.37
2018-04-17T19:13:43.485Z,7.22
2018-04-17T19:16:09.533Z,4.87
2018-04-17T19:18:35.494Z,5.30
2018-04-17T19:21:01.500Z,4.53
2018-04-17T19:23:27.452Z,6.12
2018-04-17T19:25:53.432Z,4.53
2018-04-17T19:28:19.454Z,5.47
2018-04-17T19:30:45.439Z,4.45
2018-04-17T19:33:11.427Z,3.90
2018-04-17T19:35:37.428Z,8.53
2018-04-17T19:38:03.403Z,5.53
2018-04-17T19:40:30.094Z,6.87
2018-04-17T19:42:56.068Z,5.53
2018-04-17T19:45:22.081Z,5.03
2018-04-17T19:47:48.052Z,5.82
2018-04-17T19:50:14.058Z,5.20
2018-04-17T19:52:40.054Z,5.45
2018-04-17T19:55:06.039Z,5.87
2018-04-17T19:57:32.760Z,5.07
2018-04-17T19:59:58.732Z,7.25
2018-04-17T20:02:24.726Z,7.23
2018-04-17T20:04:51.434Z,4.62
2018-04-17T20:07:17.477Z,3.95
2018-04-17T20:09:43.468Z,3.67
2018-04-17T20:12:09.426Z,4.70
2018-04-17T20:14:35.395Z,4.50
2018-04-17T20:17:01.349Z,5.43
2018-04-17T20:19:27.352Z,3.77
2018-04-17T20:21:53.314Z,3.65
2018-04-17T20:24:19.281Z,6.50
2018-04-17T20:26:45.250Z,3.73
2018-04-17T20:29:11.263Z,4.80
2018-04-17T20:31:37.264Z,5.30
2018-04-17T20:34:03.247Z,5.50
2018-04-17T20:36:29.229Z,4.37
2018-04-17T20:38:55.223Z,4.70
2018-04-17T20:41:21.199Z,7.13
2018-04-17T20:43:47.944Z,9.30
2018-04-17T20:46:14.640Z,3.80
2018-04-17T20:48:40.659Z,4.40
2018-04-17T20:51:06.643Z,4.03
2018-04-17T20:53:32.648Z,5.23
2018-04-17T20:55:58.606Z,4.53
2018-04-17T20:58:24.585Z,6.90
2018-04-17T21:00:50.558Z,5.23
2018-04-17T21:03:16.530Z,4.30
2018-04-17T21:05:42.492Z,4.77
2018-04-17T21:08:08.476Z,7.17
2018-04-17T21:10:34.474Z,3.50
2018-04-17T21:13:00.449Z,4.18
2018-04-17T21:15:26.429Z,7.50
2018-04-17T21:17:52.407Z,6.10
2018-04-17T21:20:18.392Z,7.60
2018-04-17T21:22:44.367Z,5.47
2018-04-17T21:25:10.334Z,5.10
2018-04-17T21:27:36.318Z,4.40
2018-04-17T21:30:02.320Z,4.50
2018-04-17T21:32:28.279Z,5.90
2018-04-17T21:34:54.282Z,4.80
2018-04-17T21:37:20.240Z,7.50
2018-04-17T21:39:46.219Z,5.87
2018-04-17T21:42:12.203Z,11.50
2018-04-17T21:44:38.895Z,8.53
2018-04-17T21:47:04.908Z,5.75
2018-04-17T21:49:30.858Z,4.55
2018-04-17T21:51:56.815Z,4.53
2018-04-17T21:54:23.560Z,6.53
2018-04-17T21:56:49.539Z,5.47
2018-04-17T21:59:15.492Z,7.50
2018-04-17T22:01:41.462Z,4.47
2018-04-17T22:04:07.467Z,8.60
2018-04-17T22:06:33.456Z,5.00
2018-04-17T22:09:00.155Z,5.33
2018-04-17T22:11:26.146Z,5.72
2018-04-17T22:13:52.127Z,4.85
2018-04-17T22:16:18.103Z,4.87
2018-04-17T22:18:44.069Z,4.30
2018-04-17T22:21:10.076Z,4.50
2018-04-17T22:23:36.040Z,4.65
2018-04-17T22:26:02.749Z,5.30
2018-04-17T22:28:28.746Z,7.80
2018-04-17T22:30:54.718Z,5.90
2018-04-17T22:33:21.442Z,5.00
2018-04-17T22:35:47.384Z,4.93
2018-04-17T22:38:14.111Z,4.90
2018-04-17T22:40:40.839Z,5.68
2018-04-17T22:43:06.845Z,6.85
2018-04-17T22:45:32.814Z,9.18
2018-04-17T22:47:58.814Z,5.87
2018-04-17T22:50:24.787Z,5.37
2018-04-17T22:52:50.787Z,6.60
2018-04-17T22:55:16.755Z,8.05
2018-04-17T22:57:42.725Z,6.27
2018-04-17T23:00:09.451Z,7.50
2018-04-17T23:02:36.136Z,6.62
2018-04-17T23:05:02.163Z,6.65
2018-04-17T23:07:28.130Z,7.15
2018-04-17T23:09:54.132Z,9.57
2018-04-17T23:12:20.087Z,7.53
2018-04-17T23:14:46.807Z,7.97
2018-04-17T23:17:12.756Z,7.72
2018-04-17T23:19:38.719Z,6.20
2018-04-17T23:22:04.729Z,8.17
2018-04-17T23:24:30.723Z,9.00
2018-04-17T23:26:56.730Z,6.40
2018-04-17T23:29:23.443Z,6.53
2018-04-17T23:31:49.424Z,6.97
2018-04-17T23:34:15.431Z,6.95
2018-04-17T23:36:41.413Z,6.32
2018-04-17T23:39:07.400Z,6.20
2018-04-17T23:41:33.370Z,6.70
2018-04-17T23:43:59.347Z,7.43
2018-04-17T23:46:25.329Z,11.90
2018-04-17T23:48:51.275Z,6.97
2018-04-17T23:51:17.265Z,7.00
2018-04-17T23:53:44.002Z,6.40
2018-04-17T23:56:09.959Z,7.20
2018-04-17T23:58:35.934Z,6.70
